sensor_id;sensor_type;location;lat;lon;timestamp;pressure;altitude;pressure_sealevel;temperature;humidity
39487;BME280;25173;50.430;18.926;2023-04-26T00:02:31;97686.44;;;9.69;56.39
39487;BME280;25173;50.430;18.926;2023-04-26T00:05:32;97683.47;;;9.66;56.82
39487;BME280;25173;50.430;18.926;2023-04-26T00:08:32;97688.94;;;9.61;56.86
39487;BME280;25173;50.430;18.926;2023-04-26T00:11:33;97694.91;;;9.58;56.86
39487;BME280;25173;50.430;18.926;2023-04-26T00:14:33;97697.94;;;9.51;56.92
39487;BME280;25173;50.430;18.926;2023-04-26T00:17:34;97704.47;;;9.50;56.89
39487;BME280;25173;50.430;18.926;2023-04-26T00:20:35;97693.63;;;9.45;56.87
39487;BME280;25173;50.430;18.926;2023-04-26T00:23:36;97701.22;;;9.43;56.88
39487;BME280;25173;50.430;18.926;2023-04-26T00:26:37;97705.34;;;9.41;56.89
39487;BME280;25173;50.430;18.926;2023-04-26T00:29:37;97700.44;;;9.38;56.65
39487;BME280;25173;50.430;18.926;2023-04-26T00:32:38;97704.81;;;9.28;56.63
39487;BME280;25173;50.430;18.926;2023-04-26T00:35:40;97708.09;;;9.25;56.56
39487;BME280;25173;50.430;18.926;2023-04-26T00:38:40;97709.69;;;9.26;56.32
39487;BME280;25173;50.430;18.926;2023-04-26T00:41:42;97713.25;;;9.27;56.13
39487;BME280;25173;50.430;18.926;2023-04-26T00:44:43;97715.97;;;9.22;55.88
39487;BME280;25173;50.430;18.926;2023-04-26T00:47:43;97712.75;;;9.15;55.41
39487;BME280;25173;50.430;18.926;2023-04-26T00:50:44;97703.81;;;8.99;55.03
39487;BME280;25173;50.430;18.926;2023-04-26T00:53:45;97716.88;;;8.87;55.07
39487;BME280;25173;50.430;18.926;2023-04-26T00:56:46;97718.25;;;8.79;55.23
39487;BME280;25173;50.430;18.926;2023-04-26T00:59:46;97715.53;;;8.69;55.15
39487;BME280;25173;50.430;18.926;2023-04-26T01:02:50;97708.22;;;8.65;55.17
39487;BME280;25173;50.430;18.926;2023-04-26T01:05:51;97714.75;;;8.59;55.10
39487;BME280;25173;50.430;18.926;2023-04-26T01:08:52;97709.03;;;8.50;55.05
39487;BME280;25173;50.430;18.926;2023-04-26T01:11:55;97709.56;;;8.47;55.03
39487;BME280;25173;50.430;18.926;2023-04-26T01:14:58;97723.41;;;8.40;55.25
39487;BME280;25173;50.430;18.926;2023-04-26T01:17:59;97717.94;;;8.30;55.11
39487;BME280;25173;50.430;18.926;2023-04-26T01:21:00;97717.94;;;8.20;55.16
39487;BME280;25173;50.430;18.926;2023-04-26T01:24:04;97717.66;;;8.16;55.49
39487;BME280;25173;50.430;18.926;2023-04-26T01:27:05;97724.97;;;8.16;55.43
39487;BME280;25173;50.430;18.926;2023-04-26T01:30:07;97729.06;;;8.13;55.46
39487;BME280;25173;50.430;18.926;2023-04-26T01:33:07;97728.78;;;8.15;55.42
39487;BME280;25173;50.430;18.926;2023-04-26T01:36:08;97726.59;;;8.17;55.53
39487;BME280;25173;50.430;18.926;2023-04-26T01:39:12;97723.88;;;8.17;55.33
39487;BME280;25173;50.430;18.926;2023-04-26T01:42:12;97732.28;;;8.15;55.32
39487;BME280;25173;50.430;18.926;2023-04-26T01:45:13;97730.66;;;8.09;55.34
39487;BME280;25173;50.430;18.926;2023-04-26T01:48:32;97733.66;;;8.13;55.28
39487;BME280;25173;50.430;18.926;2023-04-26T01:51:34;97741.81;;;8.13;55.26
39487;BME280;25173;50.430;18.926;2023-04-26T01:54:35;97743.97;;;8.11;55.19
39487;BME280;25173;50.430;18.926;2023-04-26T01:57:36;97738.78;;;8.09;55.14
39487;BME280;25173;50.430;18.926;2023-04-26T02:00:36;97734.44;;;8.03;55.10
39487;BME280;25173;50.430;18.926;2023-04-26T02:03:37;97734.97;;;7.95;55.37
39487;BME280;25173;50.430;18.926;2023-04-26T02:06:38;97726.28;;;7.93;55.27
39487;BME280;25173;50.430;18.926;2023-04-26T02:09:40;97729.25;;;7.87;55.45
39487;BME280;25173;50.430;18.926;2023-04-26T02:12:42;97730.06;;;7.82;55.42
39487;BME280;25173;50.430;18.926;2023-04-26T02:15:45;97730.88;;;7.77;55.47
39487;BME280;25173;50.430;18.926;2023-04-26T02:18:46;97737.34;;;7.71;55.53
39487;BME280;25173;50.430;18.926;2023-04-26T02:21:52;97732.16;;;7.65;55.66
39487;BME280;25173;50.430;18.926;2023-04-26T02:24:53;97731.09;;;7.61;56.48
39487;BME280;25173;50.430;18.926;2023-04-26T02:27:54;97735.38;;;7.57;55.57
39487;BME280;25173;50.430;18.926;2023-04-26T02:30:55;97729.97;;;7.57;55.60
39487;BME280;25173;50.430;18.926;2023-04-26T02:33:56;97736.50;;;7.56;55.55
39487;BME280;25173;50.430;18.926;2023-04-26T02:36:57;97737.00;;;7.53;55.48
39487;BME280;25173;50.430;18.926;2023-04-26T02:39:58;97731.84;;;7.51;55.20
39487;BME280;25173;50.430;18.926;2023-04-26T02:42:58;97736.75;;;7.54;55.65
39487;BME280;25173;50.430;18.926;2023-04-26T02:45:59;97728.31;;;7.51;55.73
39487;BME280;25173;50.430;18.926;2023-04-26T02:49:00;97735.88;;;7.44;56.13
39487;BME280;25173;50.430;18.926;2023-04-26T02:52:01;97736.13;;;7.37;55.85
39487;BME280;25173;50.430;18.926;2023-04-26T02:55:03;97732.59;;;7.36;56.00
39487;BME280;25173;50.430;18.926;2023-04-26T02:58:04;97727.97;;;7.32;56.13
39487;BME280;25173;50.430;18.926;2023-04-26T03:01:05;97729.28;;;7.24;56.39
39487;BME280;25173;50.430;18.926;2023-04-26T03:04:06;97730.06;;;7.15;56.49
39487;BME280;25173;50.430;18.926;2023-04-26T03:07:08;97725.97;;;7.12;56.57
39487;BME280;25173;50.430;18.926;2023-04-26T03:10:09;97726.75;;;7.08;56.92
39487;BME280;25173;50.430;18.926;2023-04-26T03:13:11;97745.69;;;7.03;57.02
39487;BME280;25173;50.430;18.926;2023-04-26T03:16:12;97749.97;;;6.98;57.22
39487;BME280;25173;50.430;18.926;2023-04-26T03:19:13;97753.50;;;6.99;57.22
39487;BME280;25173;50.430;18.926;2023-04-26T03:22:14;97758.06;;;6.93;57.51
39487;BME280;25173;50.430;18.926;2023-04-26T03:25:16;97758.88;;;6.89;57.59
39487;BME280;25173;50.430;18.926;2023-04-26T03:28:16;97758.31;;;6.87;57.68
39487;BME280;25173;50.430;18.926;2023-04-26T03:31:17;97768.06;;;6.88;57.50
39487;BME280;25173;50.430;18.926;2023-04-26T03:34:19;97770.78;;;6.88;57.47
39487;BME280;25173;50.430;18.926;2023-04-26T03:37:20;97774.78;;;6.80;57.98
39487;BME280;25173;50.430;18.926;2023-04-26T03:40:27;97775.31;;;6.82;57.76
39487;BME280;25173;50.430;18.926;2023-04-26T03:43:28;97772.31;;;6.79;57.77
39487;BME280;25173;50.430;18.926;2023-04-26T03:46:29;97780.69;;;6.77;57.86
39487;BME280;25173;50.430;18.926;2023-04-26T03:49:29;97780.69;;;6.77;57.91
39487;BME280;25173;50.430;18.926;2023-04-26T03:52:31;97788.56;;;6.79;58.04
39487;BME280;25173;50.430;18.926;2023-04-26T03:55:32;97791.78;;;6.76;58.12
39487;BME280;25173;50.430;18.926;2023-04-26T03:58:33;97790.72;;;6.82;58.06
39487;BME280;25173;50.430;18.926;2023-04-26T04:01:33;97796.72;;;6.84;57.85
39487;BME280;25173;50.430;18.926;2023-04-26T04:04:34;97806.50;;;6.90;57.81
39487;BME280;25173;50.430;18.926;2023-04-26T04:07:35;97807.84;;;6.87;57.86
39487;BME280;25173;50.430;18.926;2023-04-26T04:10:35;97805.41;;;6.86;57.88
39487;BME280;25173;50.430;18.926;2023-04-26T04:13:37;97810.59;;;6.92;57.83
39487;BME280;25173;50.430;18.926;2023-04-26T04:16:38;97813.31;;;6.97;57.83
39487;BME280;25173;50.430;18.926;2023-04-26T04:19:39;97811.41;;;6.93;57.94
39487;BME280;25173;50.430;18.926;2023-04-26T04:22:39;97820.81;;;6.85;58.26
39487;BME280;25173;50.430;18.926;2023-04-26T04:25:41;97814.84;;;6.83;58.30
39487;BME280;25173;50.430;18.926;2023-04-26T04:28:45;97825.44;;;6.90;57.92
39487;BME280;25173;50.430;18.926;2023-04-26T04:31:46;97831.13;;;6.88;58.17
39487;BME280;25173;50.430;18.926;2023-04-26T04:34:48;97834.84;;;6.82;58.18
39487;BME280;25173;50.430;18.926;2023-04-26T04:37:50;97825.91;;;6.82;58.61
39487;BME280;25173;50.430;18.926;2023-04-26T04:40:51;97835.94;;;6.81;58.42
39487;BME280;25173;50.430;18.926;2023-04-26T04:43:52;97838.91;;;6.80;58.59
39487;BME280;25173;50.430;18.926;2023-04-26T04:46:53;97835.63;;;6.78;58.79
39487;BME280;25173;50.430;18.926;2023-04-26T04:49:54;97842.44;;;6.80;58.76
39487;BME280;25173;50.430;18.926;2023-04-26T04:52:55;97839.50;;;6.87;58.69
39487;BME280;25173;50.430;18.926;2023-04-26T04:55:55;97852.81;;;6.93;58.46
39487;BME280;25173;50.430;18.926;2023-04-26T04:58:56;97857.19;;;6.99;58.48
39487;BME280;25173;50.430;18.926;2023-04-26T05:01:57;97849.41;;;7.03;58.38
39487;BME280;25173;50.430;18.926;2023-04-26T05:04:58;97856.47;;;7.09;58.42
39487;BME280;25173;50.430;18.926;2023-04-26T05:08:01;97857.28;;;7.10;58.15
39487;BME280;25173;50.430;18.926;2023-04-26T05:11:02;97860.50;;;7.07;58.12
39487;BME280;25173;50.430;18.926;2023-04-26T05:14:03;97862.66;;;7.05;58.08
39487;BME280;25173;50.430;18.926;2023-04-26T05:17:05;97871.13;;;7.13;58.13
39487;BME280;25173;50.430;18.926;2023-04-26T05:20:06;97865.75;;;7.18;58.02
39487;BME280;25173;50.430;18.926;2023-04-26T05:23:07;97869.66;;;7.32;57.85
39487;BME280;25173;50.430;18.926;2023-04-26T05:26:14;97874.59;;;7.46;57.55
39487;BME280;25173;50.430;18.926;2023-04-26T05:29:28;97887.63;;;7.49;57.16
39487;BME280;25173;50.430;18.926;2023-04-26T05:32:40;97871.66;;;7.47;57.36
39487;BME280;25173;50.430;18.926;2023-04-26T05:35:51;97880.84;;;7.46;56.89
39487;BME280;25173;50.430;18.926;2023-04-26T05:38:55;97866.16;;;7.37;56.77
39487;BME280;25173;50.430;18.926;2023-04-26T05:41:56;97877.22;;;7.30;56.47
39487;BME280;25173;50.430;18.926;2023-04-26T05:44:57;97871.53;;;7.32;56.64
39487;BME280;25173;50.430;18.926;2023-04-26T05:47:59;97881.13;;;7.50;56.87
39487;BME280;25173;50.430;18.926;2023-04-26T05:51:01;97874.16;;;7.59;56.52
39487;BME280;25173;50.430;18.926;2023-04-26T05:54:01;97871.44;;;7.64;56.32
39487;BME280;25173;50.430;18.926;2023-04-26T05:57:02;97880.16;;;7.71;56.08
39487;BME280;25173;50.430;18.926;2023-04-26T06:00:03;97863.94;;;7.76;55.64
39487;BME280;25173;50.430;18.926;2023-04-26T06:03:14;97881.84;;;7.77;55.67
39487;BME280;25173;50.430;18.926;2023-04-26T06:06:15;97887.03;;;7.84;55.25
39487;BME280;25173;50.430;18.926;2023-04-26T06:09:17;97885.69;;;7.86;55.09
39487;BME280;25173;50.430;18.926;2023-04-26T06:12:18;97887.06;;;7.89;55.24
39487;BME280;25173;50.430;18.926;2023-04-26T06:15:20;97887.38;;;7.97;55.14
39487;BME280;25173;50.430;18.926;2023-04-26T06:18:20;97887.19;;;8.14;55.18
39487;BME280;25173;50.430;18.926;2023-04-26T06:21:21;97888.81;;;8.15;54.36
39487;BME280;25173;50.430;18.926;2023-04-26T06:24:22;97903.22;;;8.21;54.88
39487;BME280;25173;50.430;18.926;2023-04-26T06:27:24;97902.41;;;8.30;54.37
39487;BME280;25173;50.430;18.926;2023-04-26T06:30:25;97913.03;;;8.32;53.75
39487;BME280;25173;50.430;18.926;2023-04-26T06:33:26;97907.34;;;8.33;53.58
39487;BME280;25173;50.430;18.926;2023-04-26T06:36:27;97903.88;;;8.43;54.18
39487;BME280;25173;50.430;18.926;2023-04-26T06:39:28;97901.72;;;8.50;53.83
39487;BME280;25173;50.430;18.926;2023-04-26T06:42:29;97902.53;;;8.55;53.56
39487;BME280;25173;50.430;18.926;2023-04-26T06:45:55;97904.44;;;8.55;53.48
39487;BME280;25173;50.430;18.926;2023-04-26T06:48:56;97898.75;;;8.56;53.61
39487;BME280;25173;50.430;18.926;2023-04-26T06:51:58;97888.16;;;8.60;53.41
39487;BME280;25173;50.430;18.926;2023-04-26T06:55:02;97891.47;;;8.77;53.59
39487;BME280;25173;50.430;18.926;2023-04-26T06:58:03;97902.38;;;9.03;53.56
39487;BME280;25173;50.430;18.926;2023-04-26T07:01:04;97899.63;;;9.28;52.93
39487;BME280;25173;50.430;18.926;2023-04-26T07:04:05;97912.69;;;9.31;51.87
39487;BME280;25173;50.430;18.926;2023-04-26T07:07:09;97892.03;;;9.35;51.45
39487;BME280;25173;50.430;18.926;2023-04-26T07:10:10;97899.06;;;9.56;51.56
39487;BME280;25173;50.430;18.926;2023-04-26T07:13:11;97892.56;;;9.52;50.64
39487;BME280;25173;50.430;18.926;2023-04-26T07:16:12;97889.59;;;9.54;51.23
39487;BME280;25173;50.430;18.926;2023-04-26T07:19:12;97893.09;;;9.69;51.09
39487;BME280;25173;50.430;18.926;2023-04-26T07:22:13;97899.56;;;9.79;50.96
39487;BME280;25173;50.430;18.926;2023-04-26T07:25:13;97891.69;;;9.92;51.20
39487;BME280;25173;50.430;18.926;2023-04-26T07:28:14;97904.41;;;10.17;51.30
39487;BME280;25173;50.430;18.926;2023-04-26T07:31:15;97903.50;;;10.42;50.26
39487;BME280;25173;50.430;18.926;2023-04-26T07:34:16;97902.59;;;10.57;49.70
39487;BME280;25173;50.430;18.926;2023-04-26T07:37:16;97906.38;;;10.61;49.75
39487;BME280;25173;50.430;18.926;2023-04-26T07:40:17;97905.38;;;10.52;48.80
39487;BME280;25173;50.430;18.926;2023-04-26T07:43:19;97910.81;;;10.52;49.50
39487;BME280;25173;50.430;18.926;2023-04-26T07:46:20;97920.31;;;10.59;48.76
39487;BME280;25173;50.430;18.926;2023-04-26T07:49:20;97922.28;;;10.43;47.80
39487;BME280;25173;50.430;18.926;2023-04-26T07:52:21;97918.78;;;10.33;47.57
39487;BME280;25173;50.430;18.926;2023-04-26T07:55:22;97918.16;;;10.46;48.48
39487;BME280;25173;50.430;18.926;2023-04-26T07:58:23;97920.59;;;10.52;47.66
39487;BME280;25173;50.430;18.926;2023-04-26T08:01:23;97920.88;;;10.51;47.40
39487;BME280;25173;50.430;18.926;2023-04-26T08:04:32;97924.94;;;10.54;45.98
39487;BME280;25173;50.430;18.926;2023-04-26T08:07:33;97932.59;;;10.46;46.59
39487;BME280;25173;50.430;18.926;2023-04-26T08:10:34;97927.41;;;10.50;46.26
39487;BME280;25173;50.430;18.926;2023-04-26T08:13:34;97931.41;;;10.68;46.30
39487;BME280;25173;50.430;18.926;2023-04-26T08:16:35;97929.75;;;10.72;46.08
39487;BME280;25173;50.430;18.926;2023-04-26T08:19:36;97935.75;;;10.74;46.37
39487;BME280;25173;50.430;18.926;2023-04-26T08:22:37;97942.53;;;10.81;46.44
39487;BME280;25173;50.430;18.926;2023-04-26T08:25:37;97934.00;;;10.93;46.19
39487;BME280;25173;50.430;18.926;2023-04-26T08:28:38;97938.16;;;10.80;43.53
39487;BME280;25173;50.430;18.926;2023-04-26T08:31:39;97937.13;;;10.71;44.60
39487;BME280;25173;50.430;18.926;2023-04-26T08:34:39;97940.34;;;10.78;45.08
39487;BME280;25173;50.430;18.926;2023-04-26T08:37:40;97935.63;;;10.94;44.53
39487;BME280;25173;50.430;18.926;2023-04-26T08:40:42;97934.41;;;11.15;44.83
39487;BME280;25173;50.430;18.926;2023-04-26T08:43:46;97940.56;;;11.31;44.38
39487;BME280;25173;50.430;18.926;2023-04-26T08:47:03;97941.38;;;11.32;45.04
39487;BME280;25173;50.430;18.926;2023-04-26T08:50:07;97947.69;;;11.22;44.99
39487;BME280;25173;50.430;18.926;2023-04-26T08:53:13;97937.78;;;10.97;44.79
39487;BME280;25173;50.430;18.926;2023-04-26T08:56:15;97939.53;;;10.78;44.66
39487;BME280;25173;50.430;18.926;2023-04-26T08:59:16;97945.25;;;10.81;44.32
39487;BME280;25173;50.430;18.926;2023-04-26T09:02:19;97935.09;;;10.92;44.51
39487;BME280;25173;50.430;18.926;2023-04-26T09:05:20;97936.34;;;11.05;44.13
39487;BME280;25173;50.430;18.926;2023-04-26T09:08:23;97957.28;;;11.14;44.47
39487;BME280;25173;50.430;18.926;2023-04-26T09:11:24;97961.09;;;11.13;44.58
39487;BME280;25173;50.430;18.926;2023-04-26T09:14:25;97963.09;;;11.42;45.36
39487;BME280;25173;50.430;18.926;2023-04-26T09:20:30;97947.03;;;11.40;44.24
39487;BME280;25173;50.430;18.926;2023-04-26T09:23:31;97932.16;;;11.56;45.65
39487;BME280;25173;50.430;18.926;2023-04-26T09:26:32;97935.25;;;11.79;44.43
39487;BME280;25173;50.430;18.926;2023-04-26T09:29:32;97949.91;;;11.88;43.42
39487;BME280;25173;50.430;18.926;2023-04-26T09:35:43;97972.19;;;11.27;44.41
39487;BME280;25173;50.430;18.926;2023-04-26T09:38:43;97962.91;;;10.89;44.90
39487;BME280;25173;50.430;18.926;2023-04-26T09:41:44;97974.16;;;10.67;45.08
39487;BME280;25173;50.430;18.926;2023-04-26T09:44:45;97958.13;;;10.61;45.31
39487;BME280;25173;50.430;18.926;2023-04-26T09:47:45;97960.25;;;10.74;45.70
39487;BME280;25173;50.430;18.926;2023-04-26T09:50:46;97964.03;;;10.78;45.81
39487;BME280;25173;50.430;18.926;2023-04-26T09:53:48;97954.94;;;11.03;46.24
39487;BME280;25173;50.430;18.926;2023-04-26T09:56:58;97958.53;;;11.32;45.04
39487;BME280;25173;50.430;18.926;2023-04-26T10:00:05;97960.78;;;11.59;45.24
39487;BME280;25173;50.430;18.926;2023-04-26T10:03:07;97942.13;;;11.76;43.65
39487;BME280;25173;50.430;18.926;2023-04-26T10:06:09;97965.19;;;11.55;43.02
39487;BME280;25173;50.430;18.926;2023-04-26T10:09:09;97971.13;;;11.23;43.47
39487;BME280;25173;50.430;18.926;2023-04-26T10:12:12;97987.44;;;10.89;44.36
39487;BME280;25173;50.430;18.926;2023-04-26T10:15:13;97980.94;;;10.80;45.44
39487;BME280;25173;50.430;18.926;2023-04-26T10:18:14;97963.22;;;10.77;44.62
39487;BME280;25173;50.430;18.926;2023-04-26T10:21:20;97957.47;;;10.89;43.81
39487;BME280;25173;50.430;18.926;2023-04-26T10:24:22;97949.47;;;10.98;43.53
39487;BME280;25173;50.430;18.926;2023-04-26T10:30:58;97963.41;;;11.35;40.54
39487;BME280;25173;50.430;18.926;2023-04-26T10:34:29;97966.34;;;11.44;40.19
39487;BME280;25173;50.430;18.926;2023-04-26T10:37:32;97975.66;;;11.77;40.98
39487;BME280;25173;50.430;18.926;2023-04-26T10:40:36;97980.13;;;11.96;40.84
39487;BME280;25173;50.430;18.926;2023-04-26T10:43:38;97956.91;;;12.23;40.98
39487;BME280;25173;50.430;18.926;2023-04-26T10:46:42;97982.97;;;12.15;40.37
39487;BME280;25173;50.430;18.926;2023-04-26T10:49:44;97987.22;;;11.97;41.39
39487;BME280;25173;50.430;18.926;2023-04-26T10:56:08;97985.25;;;11.69;39.89
39487;BME280;25173;50.430;18.926;2023-04-26T10:59:11;97975.78;;;11.56;39.57
39487;BME280;25173;50.430;18.926;2023-04-26T11:02:12;97973.84;;;11.62;39.97
39487;BME280;25173;50.430;18.926;2023-04-26T11:05:51;97986.81;;;11.80;38.12
39487;BME280;25173;50.430;18.926;2023-04-26T11:08:53;97989.25;;;11.82;40.75
39487;BME280;25173;50.430;18.926;2023-04-26T11:11:54;97983.13;;;11.61;41.09
39487;BME280;25173;50.430;18.926;2023-04-26T11:14:55;98001.44;;;11.16;43.38
39487;BME280;25173;50.430;18.926;2023-04-26T11:18:03;97994.09;;;10.58;45.24
39487;BME280;25173;50.430;18.926;2023-04-26T11:21:05;97981.63;;;10.41;45.79
39487;BME280;25173;50.430;18.926;2023-04-26T11:24:06;97971.81;;;10.45;46.54
39487;BME280;25173;50.430;18.926;2023-04-26T11:27:07;97971.75;;;10.66;45.53
39487;BME280;25173;50.430;18.926;2023-04-26T11:30:09;97964.56;;;10.85;43.83
39487;BME280;25173;50.430;18.926;2023-04-26T11:33:17;97968.69;;;11.21;41.17
39487;BME280;25173;50.430;18.926;2023-04-26T11:36:19;97973.28;;;11.65;42.54
39487;BME280;25173;50.430;18.926;2023-04-26T11:39:20;97975.19;;;11.98;40.15
39487;BME280;25173;50.430;18.926;2023-04-26T11:42:24;97973.16;;;11.85;38.60
39487;BME280;25173;50.430;18.926;2023-04-26T11:45:25;97977.19;;;11.88;39.70
39487;BME280;25173;50.430;18.926;2023-04-26T11:48:27;97976.78;;;11.71;39.44
39487;BME280;25173;50.430;18.926;2023-04-26T11:51:28;97977.19;;;11.54;39.18
39487;BME280;25173;50.430;18.926;2023-04-26T11:54:33;97986.22;;;11.49;40.16
39487;BME280;25173;50.430;18.926;2023-04-26T11:57:34;97984.22;;;11.60;38.67
39487;BME280;25173;50.430;18.926;2023-04-26T12:03:58;97982.72;;;11.44;37.36
39487;BME280;25173;50.430;18.926;2023-04-26T12:06:59;97972.88;;;11.48;37.65
39487;BME280;25173;50.430;18.926;2023-04-26T12:10:13;97990.13;;;11.77;37.65
39487;BME280;25173;50.430;18.926;2023-04-26T12:13:13;97980.13;;;11.96;37.78
39487;BME280;25173;50.430;18.926;2023-04-26T12:16:14;97972.78;;;12.21;38.29
39487;BME280;25173;50.430;18.926;2023-04-26T12:19:15;97985.66;;;12.44;37.76
39487;BME280;25173;50.430;18.926;2023-04-26T12:22:19;98006.66;;;12.67;36.98
39487;BME280;25173;50.430;18.926;2023-04-26T12:25:21;97987.72;;;12.76;36.37
39487;BME280;25173;50.430;18.926;2023-04-26T12:28:22;97996.22;;;12.74;36.90
39487;BME280;25173;50.430;18.926;2023-04-26T12:31:23;97985.13;;;13.27;37.47
39487;BME280;25173;50.430;18.926;2023-04-26T12:34:24;97985.34;;;13.49;36.08
39487;BME280;25173;50.430;18.926;2023-04-26T12:37:24;97979.31;;;13.34;35.31
39487;BME280;25173;50.430;18.926;2023-04-26T12:40:26;97990.25;;;12.91;35.40
39487;BME280;25173;50.430;18.926;2023-04-26T12:43:27;97993.13;;;12.57;36.53
39487;BME280;25173;50.430;18.926;2023-04-26T12:46:28;98006.06;;;12.23;37.34
39487;BME280;25173;50.430;18.926;2023-04-26T12:49:29;98003.59;;;11.97;37.84
39487;BME280;25173;50.430;18.926;2023-04-26T12:52:29;98003.31;;;11.99;38.55
39487;BME280;25173;50.430;18.926;2023-04-26T12:55:30;97991.53;;;12.03;38.53
39487;BME280;25173;50.430;18.926;2023-04-26T12:58:31;97994.00;;;12.29;39.02
39487;BME280;25173;50.430;18.926;2023-04-26T13:01:32;97997.53;;;12.53;38.55
39487;BME280;25173;50.430;18.926;2023-04-26T13:04:33;97992.84;;;12.59;38.56
39487;BME280;25173;50.430;18.926;2023-04-26T13:07:38;97996.78;;;12.48;38.14
39487;BME280;25173;50.430;18.926;2023-04-26T13:10:39;97997.25;;;12.31;38.07
39487;BME280;25173;50.430;18.926;2023-04-26T13:13:40;97999.00;;;12.22;37.83
39487;BME280;25173;50.430;18.926;2023-04-26T13:16:41;97995.25;;;12.13;38.40
39487;BME280;25173;50.430;18.926;2023-04-26T13:19:43;97993.38;;;12.37;38.05
39487;BME280;25173;50.430;18.926;2023-04-26T13:22:43;97988.97;;;12.83;38.54
39487;BME280;25173;50.430;18.926;2023-04-26T13:25:44;97990.78;;;13.12;37.88
39487;BME280;25173;50.430;18.926;2023-04-26T13:28:44;97999.34;;;13.05;36.71
39487;BME280;25173;50.430;18.926;2023-04-26T13:31:46;98011.66;;;12.84;36.96
39487;BME280;25173;50.430;18.926;2023-04-26T13:34:47;98013.56;;;12.83;37.87
39487;BME280;25173;50.430;18.926;2023-04-26T13:37:49;98026.91;;;12.66;38.36
39487;BME280;25173;50.430;18.926;2023-04-26T13:40:50;98052.94;;;12.35;38.55
39487;BME280;25173;50.430;18.926;2023-04-26T13:43:50;98038.59;;;12.19;38.96
39487;BME280;25173;50.430;18.926;2023-04-26T13:46:53;98039.63;;;12.23;38.99
39487;BME280;25173;50.430;18.926;2023-04-26T13:49:54;98033.66;;;12.50;38.76
39487;BME280;25173;50.430;18.926;2023-04-26T13:52:54;98027.78;;;13.04;38.32
39487;BME280;25173;50.430;18.926;2023-04-26T13:55:55;98021.06;;;13.58;37.71
39487;BME280;25173;50.430;18.926;2023-04-26T13:58:56;98025.09;;;13.98;37.16
39487;BME280;25173;50.430;18.926;2023-04-26T14:01:57;98021.13;;;14.36;35.78
39487;BME280;25173;50.430;18.926;2023-04-26T14:04:58;98027.78;;;14.30;35.40
39487;BME280;25173;50.430;18.926;2023-04-26T14:07:58;98028.69;;;13.93;35.82
39487;BME280;25173;50.430;18.926;2023-04-26T14:10:59;98037.09;;;13.27;36.03
39487;BME280;25173;50.430;18.926;2023-04-26T14:14:00;98057.94;;;12.75;37.34
39487;BME280;25173;50.430;18.926;2023-04-26T14:17:00;98064.84;;;12.44;38.85
39487;BME280;25173;50.430;18.926;2023-04-26T14:20:01;98064.22;;;12.23;39.43
39487;BME280;25173;50.430;18.926;2023-04-26T14:23:01;98075.44;;;12.22;39.85
39487;BME280;25173;50.430;18.926;2023-04-26T14:26:02;98055.84;;;12.43;39.77
39487;BME280;25173;50.430;18.926;2023-04-26T14:29:03;98040.88;;;13.07;39.45
39487;BME280;25173;50.430;18.926;2023-04-26T14:32:05;98048.28;;;13.68;38.95
39487;BME280;25173;50.430;18.926;2023-04-26T14:35:06;98059.44;;;13.90;37.78
39487;BME280;25173;50.430;18.926;2023-04-26T14:38:07;98042.31;;;13.98;37.24
39487;BME280;25173;50.430;18.926;2023-04-26T14:41:12;98050.41;;;14.22;36.11
39487;BME280;25173;50.430;18.926;2023-04-26T14:44:12;98054.00;;;14.36;36.42
39487;BME280;25173;50.430;18.926;2023-04-26T14:47:13;98043.63;;;14.52;36.68
39487;BME280;25173;50.430;18.926;2023-04-26T14:50:14;98051.03;;;14.52;36.45
39487;BME280;25173;50.430;18.926;2023-04-26T14:53:14;98060.84;;;14.53;36.13
39487;BME280;25173;50.430;18.926;2023-04-26T14:56:15;98063.13;;;14.92;35.62
39487;BME280;25173;50.430;18.926;2023-04-26T14:59:15;98053.56;;;15.17;35.33
39487;BME280;25173;50.430;18.926;2023-04-26T15:02:16;98059.50;;;15.60;34.46
39487;BME280;25173;50.430;18.926;2023-04-26T15:05:16;98060.50;;;15.50;33.74
39487;BME280;25173;50.430;18.926;2023-04-26T15:08:17;98052.59;;;15.62;33.96
39487;BME280;25173;50.430;18.926;2023-04-26T15:11:18;98057.78;;;15.86;33.67
39487;BME280;25173;50.430;18.926;2023-04-26T15:14:18;98051.25;;;15.96;34.09
39487;BME280;25173;50.430;18.926;2023-04-26T15:17:19;98060.53;;;15.86;34.07
39487;BME280;25173;50.430;18.926;2023-04-26T15:20:20;98074.69;;;15.16;33.18
39487;BME280;25173;50.430;18.926;2023-04-26T15:23:21;98065.19;;;14.40;34.13
39487;BME280;25173;50.430;18.926;2023-04-26T15:26:22;98068.09;;;13.79;34.94
39487;BME280;25173;50.430;18.926;2023-04-26T15:29:23;98075.25;;;13.37;35.67
39487;BME280;25173;50.430;18.926;2023-04-26T15:32:23;98083.88;;;13.02;35.99
39487;BME280;25173;50.430;18.926;2023-04-26T15:35:24;98088.59;;;12.72;36.79
39487;BME280;25173;50.430;18.926;2023-04-26T15:38:25;98098.81;;;12.33;37.49
39487;BME280;25173;50.430;18.926;2023-04-26T15:41:25;98104.56;;;11.97;38.30
39487;BME280;25173;50.430;18.926;2023-04-26T15:44:26;98104.19;;;11.70;39.12
39487;BME280;25173;50.430;18.926;2023-04-26T15:47:27;98119.16;;;11.23;41.38
39487;BME280;25173;50.430;18.926;2023-04-26T15:50:28;98119.56;;;10.97;42.33
39487;BME280;25173;50.430;18.926;2023-04-26T15:53:28;98118.50;;;10.67;43.36
39487;BME280;25173;50.430;18.926;2023-04-26T15:56:29;98105.22;;;10.50;43.84
39487;BME280;25173;50.430;18.926;2023-04-26T15:59:30;98086.44;;;10.44;44.01
39487;BME280;25173;50.430;18.926;2023-04-26T16:02:31;98092.66;;;10.60;43.91
39487;BME280;25173;50.430;18.926;2023-04-26T16:05:32;98100.25;;;10.78;42.94
39487;BME280;25173;50.430;18.926;2023-04-26T16:08:32;98084.34;;;11.05;42.50
39487;BME280;25173;50.430;18.926;2023-04-26T16:11:33;98086.44;;;11.23;42.00
39487;BME280;25173;50.430;18.926;2023-04-26T16:14:35;98100.59;;;11.31;41.21